createdAt,value
2022-11-24T00:00:03.922Z,3.60
2022-11-24T00:02:33.721Z,4.00
2022-11-24T00:05:01.730Z,3.97
2022-11-24T00:07:30.702Z,3.72
2022-11-24T00:09:58.249Z,4.20
2022-11-24T00:12:27.791Z,4.07
2022-11-24T00:14:58.161Z,4.07
2022-11-24T00:17:26.024Z,4.15
2022-11-24T00:19:58.371Z,4.70
2022-11-24T00:22:26.326Z,4.70
2022-11-24T00:24:56.550Z,4.63
2022-11-24T00:27:24.200Z,4.18
2022-11-24T00:29:53.490Z,3.90
2022-11-24T00:32:21.273Z,4.40
2022-11-24T00:34:49.422Z,4.47
2022-11-24T00:37:18.564Z,4.18
2022-11-24T00:39:48.381Z,4.07
2022-11-24T00:42:17.169Z,3.70
2022-11-24T00:44:45.772Z,3.78
2022-11-24T00:47:14.041Z,4.07
2022-11-24T00:49:46.961Z,4.05
2022-11-24T00:53:19.014Z,4.37
2022-11-24T00:55:52.395Z,3.78
2022-11-24T00:58:20.095Z,3.55
2022-11-24T01:00:49.861Z,4.40
2022-11-24T01:03:18.755Z,3.80
2022-11-24T01:05:46.555Z,4.10
2022-11-24T01:08:14.965Z,4.05
2022-11-24T01:10:43.342Z,3.55
2022-11-24T01:13:14.477Z,4.07
2022-11-24T01:15:42.056Z,3.97
2022-11-24T01:18:13.333Z,3.38
2022-11-24T01:20:41.362Z,3.63
2022-11-24T01:23:10.187Z,3.53
2022-11-24T01:25:40.509Z,3.55
2022-11-24T01:28:18.986Z,3.45
2022-11-24T01:31:49.078Z,3.65
2022-11-24T01:34:16.665Z,3.27
2022-11-24T01:36:44.837Z,3.83
2022-11-24T01:39:13.479Z,3.42
2022-11-24T01:41:43.206Z,3.58
2022-11-24T01:44:27.552Z,4.53
2022-11-24T01:46:58.855Z,2.92
2022-11-24T01:49:33.080Z,3.38
2022-11-24T01:52:04.549Z,4.00
2022-11-24T01:54:34.791Z,3.03
2022-11-24T01:57:07.031Z,3.60
2022-11-24T02:03:25.849Z,3.00
2022-11-24T02:05:58.567Z,3.10
2022-11-24T02:08:34.240Z,3.17
2022-11-24T02:11:03.543Z,2.80
2022-11-24T02:13:32.410Z,3.53
2022-11-24T02:16:01.279Z,3.60
2022-11-24T02:18:32.369Z,3.58
2022-11-24T02:21:00.715Z,2.67
2022-11-24T02:23:33.030Z,3.10
2022-11-24T02:26:06.225Z,3.10
2022-11-24T02:28:36.210Z,3.00
2022-11-24T02:31:04.611Z,2.97
2022-11-24T02:33:32.515Z,2.93
2022-11-24T02:36:00.336Z,3.22
2022-11-24T02:38:32.732Z,2.97
2022-11-24T02:41:04.113Z,3.88
2022-11-24T02:43:35.758Z,2.97
2022-11-24T02:46:03.510Z,3.35
2022-11-24T02:48:32.170Z,2.90
2022-11-24T02:51:11.857Z,2.80
2022-11-24T02:53:40.543Z,3.20
2022-11-24T02:56:08.649Z,3.28
2022-11-24T02:58:37.767Z,3.67
2022-11-24T03:01:06.601Z,3.40
2022-11-24T03:03:36.121Z,2.88
2022-11-24T03:06:03.717Z,3.08
2022-11-24T03:09:33.041Z,3.17
2022-11-24T03:12:00.825Z,2.83
2022-11-24T03:14:30.581Z,2.77
2022-11-24T03:16:59.045Z,2.45
2022-11-24T03:19:32.998Z,3.00
2022-11-24T03:22:01.454Z,2.85
2022-11-24T03:24:29.041Z,2.90
2022-11-24T03:26:57.342Z,2.75
2022-11-24T03:29:25.866Z,3.08
2022-11-24T03:31:55.846Z,2.97
2022-11-24T03:34:24.290Z,2.67
2022-11-24T03:36:53.040Z,2.50
2022-11-24T03:39:21.339Z,2.67
2022-11-24T03:41:51.478Z,2.40
2022-11-24T03:44:20.790Z,2.97
2022-11-24T03:46:56.195Z,2.50
2022-11-24T03:49:25.698Z,2.80
2022-11-24T03:52:06.553Z,2.97
2022-11-24T03:54:36.430Z,2.85
2022-11-24T03:57:04.834Z,2.92
2022-11-24T03:59:33.374Z,2.83
2022-11-24T04:02:04.265Z,2.73
2022-11-24T04:04:32.199Z,2.88
2022-11-24T04:07:00.384Z,2.75
2022-11-24T04:09:35.496Z,2.40
2022-11-24T04:12:22.562Z,2.30
2022-11-24T04:14:51.278Z,2.85
2022-11-24T04:17:23.002Z,2.55
2022-11-24T04:19:50.555Z,2.95
2022-11-24T04:22:18.291Z,2.55
2022-11-24T04:24:46.228Z,2.03
2022-11-24T04:27:13.822Z,2.75
2022-11-24T04:29:42.320Z,3.20
2022-11-24T04:32:12.561Z,3.08
2022-11-24T04:34:43.395Z,3.35
2022-11-24T04:37:13.045Z,2.60
2022-11-24T04:39:40.760Z,2.55
2022-11-24T04:42:08.431Z,3.17
2022-11-24T04:44:37.927Z,2.75
2022-11-24T04:47:07.949Z,3.57
2022-11-24T04:49:36.407Z,2.65
2022-11-24T04:52:05.711Z,2.70
2022-11-24T04:54:34.157Z,2.67
2022-11-24T04:57:01.851Z,3.08
2022-11-24T04:59:32.042Z,2.65
2022-11-24T05:01:59.873Z,3.22
2022-11-24T05:04:29.391Z,2.53
2022-11-24T05:06:58.034Z,3.33
2022-11-24T05:09:47.919Z,2.47
2022-11-24T05:12:16.480Z,2.63
2022-11-24T05:14:45.554Z,3.08
2022-11-24T05:17:13.166Z,2.85
2022-11-24T05:19:40.926Z,2.78
2022-11-24T05:22:08.958Z,2.20
2022-11-24T05:24:39.532Z,2.92
2022-11-24T05:27:07.335Z,2.92
2022-11-24T05:29:35.076Z,2.72
2022-11-24T05:32:04.588Z,3.13
2022-11-24T05:34:34.170Z,2.97
2022-11-24T05:37:03.613Z,3.10
2022-11-24T05:39:47.922Z,3.00
2022-11-24T05:42:34.243Z,2.80
2022-11-24T05:45:03.734Z,3.95
2022-11-24T05:47:31.525Z,3.38
2022-11-24T05:50:00.257Z,3.75
2022-11-24T05:52:28.410Z,3.25
2022-11-24T05:54:58.258Z,3.10
2022-11-24T05:57:27.541Z,2.50
2022-11-24T05:59:56.090Z,2.87
2022-11-24T06:02:23.758Z,3.00
2022-11-24T06:04:52.171Z,2.70
2022-11-24T06:07:21.424Z,2.63
2022-11-24T06:09:50.897Z,2.40
2022-11-24T06:12:20.542Z,3.33
2022-11-24T06:14:48.315Z,2.65
2022-11-24T06:17:16.993Z,3.42
2022-11-24T06:19:48.015Z,2.90
2022-11-24T06:22:16.038Z,3.10
2022-11-24T06:24:44.601Z,2.88
2022-11-24T06:27:13.012Z,3.30
2022-11-24T06:29:42.040Z,3.33
2022-11-24T06:32:11.634Z,3.00
2022-11-24T06:34:40.874Z,3.03
2022-11-24T06:37:09.302Z,2.85
2022-11-24T06:39:38.297Z,3.38
2022-11-24T06:42:05.944Z,3.83
2022-11-24T06:44:33.939Z,3.67
2022-11-24T06:47:04.552Z,4.10
2022-11-24T06:49:32.395Z,3.40
2022-11-24T06:52:00.676Z,3.88
2022-11-24T06:54:30.094Z,2.90
2022-11-24T06:56:58.261Z,3.53
2022-11-24T06:59:30.613Z,3.28
2022-11-24T07:01:59.146Z,3.95
2022-11-24T07:04:28.539Z,3.10
2022-11-24T07:06:56.537Z,3.35
2022-11-24T07:09:24.226Z,3.58
2022-11-24T07:11:53.277Z,3.43
2022-11-24T07:14:20.950Z,2.80
2022-11-24T07:16:48.855Z,2.88
2022-11-24T07:19:23.115Z,3.17
2022-11-24T07:21:54.899Z,3.30
2022-11-24T07:24:22.592Z,3.03
2022-11-24T07:26:50.141Z,2.60
2022-11-24T07:29:17.897Z,3.15
2022-11-24T07:31:47.258Z,3.07
2022-11-24T07:34:15.385Z,3.83
2022-11-24T07:36:47.096Z,3.80
2022-11-24T07:39:16.150Z,3.53
2022-11-24T07:41:44.128Z,3.35
2022-11-24T07:44:13.852Z,4.07
2022-11-24T07:46:41.832Z,3.40
2022-11-24T07:49:09.387Z,4.70
2022-11-24T07:51:37.036Z,3.25
2022-11-24T07:54:04.941Z,3.78
2022-11-24T07:56:34.010Z,3.60
2022-11-24T07:59:01.694Z,3.60
2022-11-24T08:01:29.477Z,3.17
2022-11-24T08:03:58.413Z,2.95
2022-11-24T08:06:31.719Z,3.55
2022-11-24T08:09:03.954Z,3.63
2022-11-24T08:11:32.881Z,4.07
2022-11-24T08:14:02.010Z,3.80
2022-11-24T08:16:30.144Z,3.90
2022-11-24T08:18:57.948Z,3.33
2022-11-24T08:21:26.061Z,3.17
2022-11-24T08:23:55.953Z,3.15
2022-11-24T08:26:25.198Z,3.58
2022-11-24T08:28:56.286Z,3.13
2022-11-24T08:31:32.506Z,2.70
2022-11-24T08:34:00.655Z,2.38
2022-11-24T08:36:28.461Z,3.67
2022-11-24T08:38:57.357Z,3.65
2022-11-24T08:41:25.649Z,2.95
2022-11-24T08:43:53.351Z,3.10
2022-11-24T08:46:22.315Z,2.95
2022-11-24T08:48:52.149Z,2.90
2022-11-24T08:51:21.726Z,3.42
2022-11-24T08:53:49.456Z,3.53
2022-11-24T08:56:17.292Z,3.03
2022-11-24T08:58:45.264Z,2.72
2022-11-24T09:01:15.624Z,2.77
2022-11-24T09:03:50.116Z,2.75
2022-11-24T09:06:22.803Z,2.67
2022-11-24T09:08:51.450Z,2.45
2022-11-24T09:11:20.568Z,2.63
2022-11-24T09:13:48.264Z,2.63
2022-11-24T09:16:18.593Z,3.63
2022-11-24T09:18:46.840Z,2.67
2022-11-24T09:21:15.819Z,2.38
2022-11-24T09:23:45.256Z,3.28
2022-11-24T09:26:14.709Z,2.67
2022-11-24T09:28:42.993Z,3.15
2022-11-24T09:31:13.316Z,2.42
2022-11-24T09:33:42.367Z,2.38
2022-11-24T09:36:12.450Z,2.10
2022-11-24T09:38:41.470Z,3.03
2022-11-24T09:41:32.047Z,2.72
2022-11-24T09:44:03.541Z,2.88
2022-11-24T09:46:34.357Z,3.00
2022-11-24T09:49:02.726Z,2.15
2022-11-24T09:51:32.405Z,2.45
2022-11-24T09:54:03.859Z,2.28
2022-11-24T09:56:36.675Z,2.10
2022-11-24T09:59:20.469Z,2.33
2022-11-24T10:01:49.466Z,2.55
2022-11-24T10:04:20.961Z,2.80
2022-11-24T10:06:53.263Z,2.55
2022-11-24T10:09:46.249Z,2.20
2022-11-24T10:12:24.723Z,2.30
2022-11-24T10:15:02.426Z,1.88
2022-11-24T10:17:43.340Z,2.40
2022-11-24T10:20:15.994Z,1.90
2022-11-24T10:22:48.805Z,2.67
2022-11-24T10:25:22.857Z,2.13
2022-11-24T10:27:57.101Z,2.10
2022-11-24T10:30:25.053Z,2.15
2022-11-24T10:32:57.254Z,2.30
2022-11-24T10:35:29.751Z,2.55
2022-11-24T10:38:03.458Z,3.05
2022-11-24T10:40:56.570Z,2.90
2022-11-24T10:43:29.853Z,2.95
2022-11-24T10:46:00.993Z,3.03
2022-11-24T10:48:32.386Z,3.10
2022-11-24T10:51:25.306Z,2.88
2022-11-24T10:53:55.963Z,2.97
2022-11-24T10:56:23.570Z,2.80
2022-11-24T10:58:53.095Z,3.00
2022-11-24T11:01:22.567Z,3.55
2022-11-24T11:03:53.009Z,3.53
2022-11-24T11:06:23.610Z,2.85
2022-11-24T11:08:51.616Z,2.47
2022-11-24T11:11:21.819Z,3.47
2022-11-24T11:14:01.505Z,3.95
2022-11-24T11:16:35.865Z,3.00
2022-11-24T11:19:20.323Z,2.53
2022-11-24T11:22:01.533Z,3.45
2022-11-24T11:24:30.118Z,2.40
2022-11-24T11:27:02.326Z,2.70
2022-11-24T11:35:13.157Z,3.37
2022-11-24T11:37:41.201Z,2.80
2022-11-24T11:40:15.602Z,2.38
2022-11-24T11:43:01.834Z,2.80
2022-11-24T11:45:36.271Z,2.20
2022-11-24T11:48:20.723Z,2.03
2022-11-24T11:51:21.851Z,2.60
2022-11-24T11:53:46.511Z,2.60
2022-11-24T11:56:23.157Z,2.72
2022-11-24T11:59:01.447Z,2.33
2022-11-24T12:01:49.061Z,2.63
2022-11-24T12:04:21.900Z,2.53
2022-11-24T12:07:13.582Z,1.83
2022-11-24T12:09:52.184Z,2.27
2022-11-24T12:12:46.805Z,2.15
2022-11-24T12:15:21.930Z,2.15
2022-11-24T12:17:54.918Z,2.47
2022-11-24T12:20:38.068Z,2.10
2022-11-24T12:23:16.404Z,2.25
2022-11-24T12:25:49.395Z,1.95
2022-11-24T12:28:27.004Z,3.10
2022-11-24T12:31:04.518Z,1.80
2022-11-24T12:33:51.573Z,2.00
2022-11-24T12:36:33.502Z,2.60
2022-11-24T12:39:07.696Z,2.72
2022-11-24T12:41:48.130Z,1.90
2022-11-24T12:44:29.177Z,2.65
2022-11-24T12:47:01.362Z,2.13
2022-11-24T12:49:35.588Z,2.35
2022-11-24T12:52:18.663Z,2.10
2022-11-24T12:54:47.595Z,1.90
2022-11-24T12:57:19.723Z,2.47
2022-11-24T12:59:53.303Z,2.15
2022-11-24T13:02:28.215Z,2.30
2022-11-24T13:05:02.799Z,1.80
2022-11-24T13:07:39.778Z,2.08
2022-11-24T13:13:23.389Z,2.05
2022-11-24T13:16:35.142Z,1.88
2022-11-24T13:19:01.850Z,1.70
2022-11-24T13:21:52.703Z,1.73
2022-11-24T13:24:29.040Z,1.83
2022-11-24T13:27:27.899Z,1.75
2022-11-24T13:29:56.637Z,3.33
2022-11-24T13:33:00.033Z,2.67
2022-11-24T13:35:38.053Z,2.30
2022-11-24T13:38:36.668Z,1.40
2022-11-24T13:41:27.713Z,2.58
2022-11-24T13:44:20.640Z,1.95
2022-11-24T13:47:04.782Z,1.92
2022-11-24T13:53:27.324Z,1.70
2022-11-24T13:55:58.690Z,2.00
2022-11-24T13:58:34.940Z,2.03
2022-11-24T14:01:11.957Z,1.80
2022-11-24T14:03:55.330Z,2.10
2022-11-24T14:06:31.237Z,1.90
2022-11-24T14:09:00.757Z,2.20
2022-11-24T14:11:29.501Z,1.75
2022-11-24T14:14:16.149Z,1.52
2022-11-24T14:16:47.416Z,2.00
2022-11-24T14:19:19.714Z,1.90
2022-11-24T14:21:49.136Z,1.83
2022-11-24T14:24:24.700Z,2.20
2022-11-24T14:26:52.945Z,1.70
2022-11-24T14:29:24.627Z,1.90
2022-11-24T14:31:54.294Z,2.45
2022-11-24T14:34:24.785Z,1.90
2022-11-24T14:36:54.779Z,2.33
2022-11-24T14:39:24.909Z,2.08
2022-11-24T14:42:54.200Z,2.75
2022-11-24T14:45:24.329Z,2.40
2022-11-24T14:47:52.570Z,2.50
2022-11-24T14:50:24.511Z,2.72
2022-11-24T14:52:55.089Z,2.28
2022-11-24T14:55:28.741Z,3.47
2022-11-24T14:57:57.169Z,3.13
2022-11-24T15:00:32.013Z,3.00
2022-11-24T15:03:16.927Z,3.57
2022-11-24T15:05:53.546Z,4.30
2022-11-24T15:08:21.378Z,3.33
2022-11-24T15:10:49.559Z,2.72
2022-11-24T15:13:19.526Z,2.92
2022-11-24T15:15:51.669Z,2.50
2022-11-24T15:18:25.462Z,2.30
2022-11-24T15:20:53.727Z,2.67
2022-11-24T15:27:04.344Z,3.53
2022-11-24T15:29:33.762Z,2.75
2022-11-24T15:32:15.468Z,2.90
2022-11-24T15:34:44.232Z,2.97
2022-11-24T15:37:12.815Z,3.43
2022-11-24T15:39:40.706Z,2.70
2022-11-24T15:42:10.288Z,2.93
2022-11-24T15:44:37.962Z,2.67
2022-11-24T15:47:06.455Z,2.88
2022-11-24T15:49:36.664Z,3.05
2022-11-24T15:52:06.787Z,2.47
2022-11-24T15:54:40.150Z,3.83
2022-11-24T15:57:12.329Z,3.47
2022-11-24T16:00:41.828Z,4.57
2022-11-24T16:03:44.489Z,4.70
2022-11-24T16:09:40.466Z,4.20
2022-11-24T16:12:09.855Z,3.67
2022-11-24T16:14:40.175Z,2.85
2022-11-24T16:17:09.436Z,3.30
2022-11-24T16:19:41.786Z,3.50
2022-11-24T16:22:10.116Z,3.83
2022-11-24T16:24:37.972Z,4.30
2022-11-24T16:27:08.131Z,3.50
2022-11-24T16:29:38.550Z,4.55
2022-11-24T16:32:07.234Z,5.05
2022-11-24T16:34:35.389Z,4.97
2022-11-24T16:37:03.348Z,5.43
2022-11-24T16:39:32.035Z,5.88
2022-11-24T16:41:59.772Z,5.65
2022-11-24T16:44:28.931Z,5.82
2022-11-24T16:46:56.900Z,5.38
2022-11-24T16:49:24.578Z,5.80
2022-11-24T16:51:52.544Z,5.07
2022-11-24T16:54:20.689Z,5.38
2022-11-24T16:56:48.585Z,5.25
2022-11-24T16:59:16.313Z,6.43
2022-11-24T17:01:46.849Z,5.35
2022-11-24T17:04:15.539Z,6.47
2022-11-24T17:07:45.774Z,6.05
2022-11-24T17:10:13.396Z,5.78
2022-11-24T17:12:41.115Z,5.50
2022-11-24T17:15:31.700Z,5.95
2022-11-24T17:18:23.568Z,5.70
2022-11-24T17:20:48.703Z,5.22
2022-11-24T17:23:17.189Z,5.25
2022-11-24T17:25:46.492Z,5.43
2022-11-24T17:28:14.104Z,5.25
2022-11-24T17:30:41.697Z,4.97
2022-11-24T17:33:10.883Z,5.47
2022-11-24T17:35:38.824Z,5.45
2022-11-24T17:38:06.561Z,5.72
2022-11-24T17:40:35.485Z,5.60
2022-11-24T17:43:03.101Z,5.35
2022-11-24T17:45:31.556Z,4.43
2022-11-24T17:48:00.725Z,5.03
2022-11-24T17:50:30.874Z,4.68
2022-11-24T17:52:58.833Z,4.40
2022-11-24T17:55:26.870Z,4.90
2022-11-24T17:57:54.574Z,5.55
2022-11-24T18:00:22.831Z,5.00
2022-11-24T18:02:52.577Z,5.43
2022-11-24T18:05:21.408Z,4.90
2022-11-24T18:07:50.955Z,5.25
2022-11-24T18:10:19.005Z,5.63
2022-11-24T18:12:46.989Z,5.23
2022-11-24T18:15:15.581Z,5.50
2022-11-24T18:17:43.961Z,5.60
2022-11-24T18:20:12.242Z,5.75
2022-11-24T18:25:29.601Z,5.60
2022-11-24T18:27:58.305Z,5.38
2022-11-24T18:30:25.929Z,6.47
2022-11-24T18:32:55.458Z,5.63
2022-11-24T18:35:23.364Z,5.90
2022-11-24T18:37:51.372Z,5.95
2022-11-24T18:40:19.311Z,5.95
2022-11-24T18:42:48.291Z,5.93
2022-11-24T18:45:16.349Z,5.35
2022-11-24T18:47:45.914Z,5.85
2022-11-24T18:50:13.891Z,5.72
2022-11-24T18:52:41.678Z,5.20
2022-11-24T18:55:09.659Z,5.95
2022-11-24T18:57:37.415Z,5.47
2022-11-24T19:00:08.389Z,5.05
2022-11-24T19:02:36.079Z,4.93
2022-11-24T19:05:04.056Z,5.55
2022-11-24T19:07:32.084Z,6.03
2022-11-24T19:10:01.513Z,5.68
2022-11-24T19:13:30.704Z,5.13
2022-11-24T19:16:02.576Z,4.60
2022-11-24T19:18:30.586Z,4.30
2022-11-24T19:20:58.474Z,5.53
2022-11-24T19:23:27.182Z,4.32
2022-11-24T19:25:54.775Z,4.18
2022-11-24T19:28:22.809Z,4.60
2022-11-24T19:30:50.434Z,4.50
2022-11-24T19:33:21.423Z,4.47
2022-11-24T19:35:50.008Z,4.13
2022-11-24T19:38:17.568Z,4.03
2022-11-24T19:40:45.188Z,3.38
2022-11-24T19:43:12.945Z,3.58
2022-11-24T19:45:44.425Z,4.00
2022-11-24T19:48:12.268Z,4.07
2022-11-24T19:50:41.454Z,4.20
2022-11-24T19:53:09.057Z,3.55
2022-11-24T19:55:36.788Z,3.90
2022-11-24T19:58:05.345Z,3.47
2022-11-24T20:00:32.939Z,3.88
2022-11-24T20:03:00.521Z,3.65
2022-11-24T20:05:28.239Z,3.23
2022-11-24T20:07:58.370Z,3.90
2022-11-24T20:10:26.140Z,3.38
2022-11-24T20:12:53.960Z,3.80
2022-11-24T20:15:22.156Z,3.67
2022-11-24T20:17:50.626Z,3.85
2022-11-24T20:20:18.671Z,3.90
2022-11-24T20:22:47.472Z,3.33
2022-11-24T20:25:17.107Z,3.30
2022-11-24T20:27:45.821Z,4.05
2022-11-24T20:30:13.857Z,4.55
2022-11-24T20:32:41.618Z,3.40
2022-11-24T20:35:13.556Z,3.97
2022-11-24T20:37:44.323Z,4.07
2022-11-24T20:40:12.673Z,3.90
2022-11-24T20:42:42.591Z,3.63
2022-11-24T20:45:10.204Z,3.63
2022-11-24T20:47:37.998Z,4.13
2022-11-24T20:50:06.334Z,3.70
2022-11-24T20:52:34.120Z,3.72
2022-11-24T20:55:04.043Z,3.90
2022-11-24T20:57:32.004Z,4.75
2022-11-24T21:00:01.085Z,3.78
2022-11-24T21:02:28.871Z,3.88
2022-11-24T21:04:57.477Z,4.53
2022-11-24T21:07:25.086Z,4.22
2022-11-24T21:09:53.545Z,4.40
2022-11-24T21:12:21.180Z,4.60
2022-11-24T21:14:48.749Z,4.13
2022-11-24T21:17:18.075Z,4.00
2022-11-24T21:19:45.791Z,3.47
2022-11-24T21:22:13.604Z,4.10
2022-11-24T21:24:42.258Z,3.67
2022-11-24T21:27:09.955Z,4.03
2022-11-24T21:29:37.706Z,3.55
2022-11-24T21:32:05.593Z,3.15
2022-11-24T21:34:35.118Z,3.77
2022-11-24T21:37:03.843Z,3.90
2022-11-24T21:39:31.679Z,3.38
2022-11-24T21:41:59.490Z,3.53
2022-11-24T21:44:29.510Z,3.40
2022-11-24T21:46:57.334Z,4.23
2022-11-24T21:49:25.588Z,3.60
2022-11-24T21:51:56.017Z,3.95
2022-11-24T21:54:23.800Z,3.92
2022-11-24T21:56:51.349Z,3.75
2022-11-24T21:59:20.777Z,4.00
2022-11-24T22:01:48.412Z,3.70
2022-11-24T22:04:16.166Z,3.67
2022-11-24T22:06:44.591Z,4.03
2022-11-24T22:09:17.816Z,3.80
2022-11-24T22:11:46.099Z,3.40
2022-11-24T22:14:13.894Z,3.33
2022-11-24T22:16:42.023Z,3.25
2022-11-24T22:19:09.582Z,3.50
2022-11-24T22:21:37.715Z,3.60
2022-11-24T22:24:06.532Z,3.22
2022-11-24T22:26:36.782Z,3.50
2022-11-24T22:29:06.366Z,3.45
2022-11-24T22:31:34.297Z,3.77
2022-11-24T22:34:02.325Z,3.70
2022-11-24T22:36:31.145Z,3.30
2022-11-24T22:39:02.980Z,3.00
2022-11-24T22:41:31.015Z,3.35
2022-11-24T22:44:00.320Z,3.67
2022-11-24T22:46:29.428Z,3.40
2022-11-24T22:48:59.655Z,3.38
2022-11-24T22:51:29.456Z,3.55
2022-11-24T22:53:58.250Z,3.90
2022-11-24T22:56:28.024Z,3.28
2022-11-24T22:58:55.769Z,3.40
2022-11-24T23:01:26.336Z,3.33
2022-11-24T23:03:55.704Z,2.67
2022-11-24T23:06:24.690Z,3.47
2022-11-24T23:08:54.253Z,3.13
2022-11-24T23:11:38.326Z,3.40
2022-11-24T23:14:07.110Z,3.53
2022-11-24T23:16:36.075Z,2.97
2022-11-24T23:19:05.052Z,3.50
2022-11-24T23:21:34.660Z,3.22
2022-11-24T23:24:03.782Z,3.10
2022-11-24T23:26:33.382Z,3.22
2022-11-24T23:29:02.110Z,3.20
2022-11-24T23:31:29.875Z,2.80
2022-11-24T23:33:59.802Z,3.50
2022-11-24T23:36:28.532Z,3.40
2022-11-24T23:38:56.334Z,3.20
2022-11-24T23:41:25.693Z,3.50
2022-11-24T23:43:53.727Z,3.42
2022-11-24T23:46:23.635Z,3.03
2022-11-24T23:48:53.214Z,2.90
2022-11-24T23:51:24.092Z,3.05
2022-11-24T23:53:52.057Z,3.03
2022-11-24T23:56:21.433Z,3.00
2022-11-24T23:58:49.488Z,2.90
